Archival Weather

Chicago O'Hare International

Chicago, Illinois (KORD)

Report from: Sunday, March 6, 2022 11:44 PM CST
Current time: Saturday, February 4, 2023 10:11 PM CST

Current weather
Weather history
Weather forecast

Present weatherRASN
Temperature2.2°C (36.0°F)
Wind chill-1.3°C (29.6°F)
Dew point-1.1°C (30.0°F)
Winds 7 kts (3.6 m/s, 8.1 mph) North-Northeast (20°)
Visibility4 mi. (6.4 km)
Clouds Ceiling: Overcast 2,300 ft. (701 m)
Altimeter29.96 in.Hg (1015 mB)
Precipitiation0.01 in. (0 mm)
Precip. events Rain began 11:14 PM
Snow began 11:14 PM
Relative humidity79 %
Density altitude-1,515 ft. (-462 m)
Remarks System requires maintenance
Automated weather observing station with precipitation discriminator
Flight conditions Marginal Visual Meteorological Conditions
Raw dataKORD 070544Z 02007KT 4SM -RASN OVC023 02/M01 A2996 RMK AO2 RAB14SNB14 P0001 T00221011 $
An unhandled exception has occurred. See browser dev tools for details. Reload 🗙